createdAt,value
2023-05-06T00:01:01.450Z,14.27
2023-05-06T00:02:04.520Z,14.63
2023-05-06T00:03:06.348Z,17.90
2023-05-06T00:04:08.222Z,12.80
2023-05-06T00:05:10.023Z,12.40
2023-05-06T00:06:11.695Z,11.70
2023-05-06T00:07:13.247Z,15.03
2023-05-06T00:08:14.715Z,15.63
2023-05-06T00:09:16.394Z,19.73
2023-05-06T00:10:18.340Z,14.60
2023-05-06T00:11:21.080Z,22.77
2023-05-06T00:12:22.655Z,15.97
2023-05-06T00:13:24.194Z,14.03
2023-05-06T00:14:25.826Z,18.60
2023-05-06T00:15:28.707Z,16.00
2023-05-06T00:16:32.249Z,12.90
2023-05-06T00:17:33.951Z,16.23
2023-05-06T00:18:35.740Z,11.07
2023-05-06T00:19:38.663Z,22.00
2023-05-06T00:20:40.435Z,17.80
2023-05-06T00:21:41.952Z,11.43
2023-05-06T00:22:43.413Z,31.57
2023-05-06T00:23:44.878Z,18.03
2023-05-06T00:24:46.516Z,32.27
2023-05-06T00:25:48.032Z,20.13
2023-05-06T00:26:49.648Z,25.53
2023-05-06T00:27:51.267Z,14.73
2023-05-06T00:28:52.787Z,14.43
2023-05-06T00:29:54.206Z,23.97
2023-05-06T00:30:56.352Z,22.43
2023-05-06T00:31:57.958Z,9.43
2023-05-06T00:32:59.516Z,17.00
2023-05-06T00:34:01.049Z,19.53
2023-05-06T00:35:03.526Z,23.23
2023-05-06T00:36:05.219Z,16.87
2023-05-06T00:37:06.926Z,11.90
2023-05-06T00:38:09.696Z,16.83
2023-05-06T00:39:11.200Z,16.87
2023-05-06T00:40:13.035Z,12.03
2023-05-06T00:41:14.462Z,13.33
2023-05-06T00:42:15.950Z,15.17
2023-05-06T00:43:18.244Z,13.53
2023-05-06T00:44:20.339Z,24.70
2023-05-06T00:45:21.923Z,16.80
2023-05-06T00:46:23.372Z,18.67
2023-05-06T00:47:28.327Z,22.47
2023-05-06T00:48:30.476Z,9.00
2023-05-06T00:49:32.440Z,11.23
2023-05-06T00:50:34.642Z,19.80
2023-05-06T00:51:36.199Z,15.27
2023-05-06T00:52:37.855Z,10.40
2023-05-06T00:53:39.913Z,9.80
2023-05-06T00:54:42.580Z,18.07
2023-05-06T00:55:44.152Z,17.60
2023-05-06T00:56:45.834Z,16.10
2023-05-06T00:57:49.479Z,10.80
2023-05-06T00:58:51.530Z,13.60
2023-05-06T00:59:52.928Z,25.50
2023-05-06T01:00:55.383Z,11.80
2023-05-06T01:01:58.106Z,11.40
2023-05-06T01:02:59.685Z,15.97
2023-05-06T01:04:01.526Z,14.33
2023-05-06T01:05:04.186Z,23.30
2023-05-06T01:06:17.276Z,17.17
2023-05-06T01:07:37.940Z,20.37
2023-05-06T01:08:51.717Z,20.50
2023-05-06T01:10:07.980Z,15.20
2023-05-06T01:11:15.798Z,24.37
2023-05-06T01:12:22.976Z,15.30
2023-05-06T01:13:28.501Z,11.10
2023-05-06T01:14:39.134Z,21.90
2023-05-06T01:15:44.723Z,10.97
2023-05-06T01:16:48.034Z,25.77
2023-05-06T01:17:51.331Z,14.13
2023-05-06T01:18:54.006Z,18.57
2023-05-06T01:19:57.468Z,17.77
2023-05-06T01:20:59.336Z,19.13
2023-05-06T01:22:02.319Z,21.00
2023-05-06T01:23:13.343Z,14.53
2023-05-06T01:24:14.894Z,22.10
2023-05-06T01:25:23.047Z,12.30
2023-05-06T01:26:24.722Z,19.70
2023-05-06T01:27:26.753Z,12.73
2023-05-06T01:28:29.134Z,16.77
2023-05-06T01:29:31.146Z,15.37
2023-05-06T01:30:36.321Z,18.00
2023-05-06T01:31:50.739Z,29.50
2023-05-06T01:33:08.099Z,21.40
2023-05-06T01:34:11.924Z,11.60
2023-05-06T01:35:13.405Z,19.10
2023-05-06T01:36:33.767Z,15.90
2023-05-06T01:37:42.366Z,20.80
2023-05-06T01:39:22.830Z,16.57
2023-05-06T01:40:26.230Z,23.03
2023-05-06T01:41:27.952Z,17.10
2023-05-06T01:42:30.205Z,27.03
2023-05-06T01:43:34.852Z,12.70
2023-05-06T01:44:37.452Z,18.13
2023-05-06T01:45:39.491Z,18.07
2023-05-06T01:46:42.354Z,14.30
2023-05-06T01:47:45.722Z,15.10
2023-05-06T01:48:49.162Z,18.90
2023-05-06T01:49:51.631Z,20.60
2023-05-06T01:50:53.229Z,14.83
2023-05-06T01:51:55.021Z,18.90
2023-05-06T01:53:02.882Z,17.00
2023-05-06T01:54:05.209Z,24.43
2023-05-06T01:55:07.204Z,11.27
2023-05-06T01:56:09.103Z,14.00
2023-05-06T01:57:10.898Z,16.40
2023-05-06T01:58:12.586Z,16.17
2023-05-06T01:59:14.308Z,13.27
2023-05-06T02:00:16.027Z,14.33
2023-05-06T02:01:17.765Z,14.23
2023-05-06T02:02:19.542Z,11.13
2023-05-06T02:03:21.509Z,20.80
2023-05-06T02:04:23.394Z,14.87
2023-05-06T02:05:25.226Z,23.10
2023-05-06T02:06:27.150Z,16.63
2023-05-06T02:07:28.639Z,14.27
2023-05-06T02:08:30.287Z,16.77
2023-05-06T02:09:31.732Z,13.10
2023-05-06T02:10:33.304Z,17.27
2023-05-06T02:11:34.769Z,21.03
2023-05-06T02:12:36.404Z,10.17
2023-05-06T02:13:37.917Z,22.10
2023-05-06T02:14:39.336Z,10.63
2023-05-06T02:15:40.893Z,13.80
2023-05-06T02:16:42.613Z,22.10
2023-05-06T02:17:44.471Z,14.40
2023-05-06T02:18:46.058Z,14.27
2023-05-06T02:19:47.568Z,14.30
2023-05-06T02:20:49.202Z,21.43
2023-05-06T02:21:50.733Z,23.43
2023-05-06T02:22:52.271Z,13.53
2023-05-06T02:23:54.415Z,13.80
2023-05-06T02:24:55.882Z,13.20
2023-05-06T02:25:58.705Z,27.33
2023-05-06T02:27:00.271Z,13.93
2023-05-06T02:28:01.736Z,29.00
2023-05-06T02:29:03.310Z,21.57
2023-05-06T02:30:05.286Z,14.73
2023-05-06T02:31:06.828Z,18.40
2023-05-06T02:32:08.446Z,18.63
2023-05-06T02:33:10.032Z,19.83
2023-05-06T02:34:11.519Z,16.80
2023-05-06T02:35:12.960Z,22.17
2023-05-06T02:36:14.578Z,17.33
2023-05-06T02:37:16.160Z,23.43
2023-05-06T02:38:17.995Z,17.10
2023-05-06T02:39:19.564Z,13.90
2023-05-06T02:40:21.868Z,22.13
2023-05-06T02:41:25.126Z,19.63
2023-05-06T02:42:30.828Z,17.93
2023-05-06T02:43:33.126Z,17.17
2023-05-06T02:44:34.799Z,16.07
2023-05-06T02:45:37.358Z,16.77
2023-05-06T02:46:39.081Z,16.37
2023-05-06T02:47:40.752Z,28.10
2023-05-06T02:48:42.245Z,26.50
2023-05-06T02:49:43.886Z,27.03
2023-05-06T02:50:45.443Z,21.90
2023-05-06T02:51:47.155Z,21.60
2023-05-06T02:52:48.636Z,18.70
2023-05-06T02:53:50.093Z,16.70
2023-05-06T02:54:51.774Z,20.43
2023-05-06T02:55:53.240Z,23.13
2023-05-06T02:56:54.808Z,13.90
2023-05-06T02:57:56.446Z,23.10
2023-05-06T02:58:58.076Z,22.33
2023-05-06T02:59:59.609Z,20.10
2023-05-06T03:01:01.213Z,16.30
2023-05-06T03:02:03.130Z,22.03
2023-05-06T03:03:05.036Z,21.93
2023-05-06T03:04:07.694Z,24.43
2023-05-06T03:05:10.419Z,25.47
2023-05-06T03:06:12.217Z,23.50
2023-05-06T03:07:13.785Z,18.57
2023-05-06T03:08:15.253Z,24.20
2023-05-06T03:09:17.023Z,19.50
2023-05-06T03:10:18.614Z,18.33
2023-05-06T03:11:22.141Z,23.17
2023-05-06T03:12:23.878Z,24.47
2023-05-06T03:13:25.513Z,21.97
2023-05-06T03:14:26.994Z,14.23
2023-05-06T03:15:28.602Z,31.57
2023-05-06T03:16:30.316Z,18.30
2023-05-06T03:17:32.328Z,18.63
2023-05-06T03:18:33.965Z,22.27
2023-05-06T03:19:35.521Z,21.40
2023-05-06T03:20:37.046Z,23.20
2023-05-06T03:21:38.595Z,31.27
2023-05-06T03:22:42.574Z,26.63
2023-05-06T03:23:44.086Z,18.57
2023-05-06T03:24:45.613Z,19.87
2023-05-06T03:25:47.691Z,19.80
2023-05-06T03:26:49.221Z,24.00
2023-05-06T03:27:50.739Z,33.43
2023-05-06T03:28:52.235Z,18.90
2023-05-06T03:29:53.641Z,24.77
2023-05-06T03:30:55.349Z,32.23
2023-05-06T03:31:57.107Z,19.27
2023-05-06T03:33:00.679Z,57.37
2023-05-06T03:34:02.232Z,44.30
2023-05-06T03:35:04.392Z,28.10
2023-05-06T03:36:06.750Z,27.17
2023-05-06T03:37:09.062Z,26.70
2023-05-06T03:38:11.455Z,26.17
2023-05-06T03:39:13.025Z,31.73
2023-05-06T03:40:14.518Z,25.57
2023-05-06T03:41:16.065Z,32.60
2023-05-06T03:42:17.617Z,19.93
2023-05-06T03:43:19.190Z,27.30
2023-05-06T03:44:21.301Z,24.43
2023-05-06T03:45:23.070Z,29.40
2023-05-06T03:46:27.727Z,24.60
2023-05-06T03:47:29.253Z,24.03
2023-05-06T03:48:31.478Z,21.67
2023-05-06T03:49:33.033Z,18.40
2023-05-06T03:50:34.779Z,22.90
2023-05-06T03:51:36.728Z,29.60
2023-05-06T03:52:38.235Z,23.87
2023-05-06T03:53:39.743Z,29.80
2023-05-06T03:54:41.231Z,25.00
2023-05-06T03:55:43.276Z,29.00
2023-05-06T03:56:44.783Z,16.73
2023-05-06T03:57:46.404Z,22.23
2023-05-06T03:58:47.863Z,23.00
2023-05-06T03:59:49.567Z,23.80
2023-05-06T04:00:51.071Z,20.63
2023-05-06T04:01:52.613Z,32.67
2023-05-06T04:02:54.141Z,14.30
2023-05-06T04:03:55.712Z,26.73
2023-05-06T04:04:57.177Z,19.37
2023-05-06T04:05:58.609Z,28.83
2023-05-06T04:07:00.755Z,26.20
2023-05-06T04:08:02.262Z,25.27
2023-05-06T04:09:06.323Z,34.97
2023-05-06T04:10:09.205Z,26.70
2023-05-06T04:11:10.951Z,24.27
2023-05-06T04:12:12.576Z,20.63
2023-05-06T04:13:14.250Z,34.70
2023-05-06T04:14:15.797Z,24.73
2023-05-06T04:15:17.314Z,21.93
2023-05-06T04:16:18.803Z,23.00
2023-05-06T04:17:20.504Z,25.20
2023-05-06T04:18:22.583Z,21.80
2023-05-06T04:19:24.174Z,23.20
2023-05-06T04:20:25.833Z,33.13
2023-05-06T04:21:27.512Z,25.10
2023-05-06T04:22:29.150Z,33.53
2023-05-06T04:23:30.693Z,27.73
2023-05-06T04:24:32.218Z,35.90
2023-05-06T04:25:35.837Z,33.80
2023-05-06T04:26:37.482Z,30.97
2023-05-06T04:27:38.940Z,38.53
2023-05-06T04:28:40.908Z,52.10
2023-05-06T04:29:42.486Z,51.23
2023-05-06T04:30:45.107Z,50.27
2023-05-06T04:31:47.295Z,47.73
2023-05-06T04:32:49.348Z,38.13
2023-05-06T04:33:53.843Z,45.10
2023-05-06T04:34:56.772Z,51.33
2023-05-06T04:35:59.447Z,38.77
2023-05-06T04:37:01.029Z,38.67
2023-05-06T04:38:02.732Z,47.60
2023-05-06T04:39:06.633Z,49.60
2023-05-06T04:40:09.291Z,57.93
2023-05-06T04:41:11.981Z,45.73
2023-05-06T04:42:14.123Z,42.47
2023-05-06T04:43:16.492Z,49.30
2023-05-06T04:44:19.463Z,50.53
2023-05-06T04:45:22.694Z,45.77
2023-05-06T04:46:24.656Z,45.40
2023-05-06T04:47:26.207Z,49.43
2023-05-06T04:48:27.986Z,51.03
2023-05-06T04:49:30.491Z,40.97
2023-05-06T04:50:32.247Z,39.17
2023-05-06T04:51:33.888Z,43.47
2023-05-06T04:52:36.446Z,37.63
2023-05-06T04:53:38.154Z,32.67
2023-05-06T04:54:40.049Z,30.83
2023-05-06T04:55:41.875Z,29.37
2023-05-06T04:56:43.442Z,42.30
2023-05-06T04:57:45.056Z,27.63
2023-05-06T04:58:46.575Z,38.47
2023-05-06T04:59:48.158Z,24.33
2023-05-06T05:00:49.714Z,35.03
2023-05-06T05:01:51.278Z,38.33
2023-05-06T05:02:53.074Z,36.77
2023-05-06T05:03:54.824Z,25.60
2023-05-06T05:04:56.434Z,25.60
2023-05-06T05:05:57.986Z,35.10
2023-05-06T05:06:59.655Z,39.27
2023-05-06T05:08:01.329Z,28.70
2023-05-06T05:09:02.951Z,36.00
2023-05-06T05:10:08.126Z,35.63
2023-05-06T05:11:10.794Z,30.10
2023-05-06T05:12:13.467Z,27.83
2023-05-06T05:13:15.529Z,33.70
2023-05-06T05:14:17.191Z,22.80
2023-05-06T05:15:18.874Z,27.73
2023-05-06T05:16:20.490Z,22.63
2023-05-06T05:17:22.314Z,18.40
2023-05-06T05:18:25.842Z,27.37
2023-05-06T05:19:27.400Z,15.90
2023-05-06T05:20:29.141Z,15.33
2023-05-06T05:21:30.804Z,13.10
2023-05-06T05:22:32.409Z,19.63
2023-05-06T05:23:34.026Z,20.00
2023-05-06T05:24:35.608Z,19.73
2023-05-06T05:25:37.175Z,13.83
2023-05-06T05:26:38.696Z,11.47
2023-05-06T05:27:42.208Z,20.00
2023-05-06T05:28:44.696Z,11.97
2023-05-06T05:29:46.402Z,10.70
2023-05-06T05:30:48.186Z,15.47
2023-05-06T05:31:50.486Z,12.43
2023-05-06T05:32:52.206Z,11.43
2023-05-06T05:33:53.951Z,20.97
2023-05-06T05:34:55.579Z,12.20
2023-05-06T05:36:00.964Z,11.70
2023-05-06T05:37:02.868Z,13.00
2023-05-06T05:38:04.405Z,10.27
2023-05-06T05:39:05.881Z,12.03
2023-05-06T05:40:07.795Z,15.60
2023-05-06T05:41:09.663Z,9.73
2023-05-06T05:42:11.602Z,15.80
2023-05-06T05:43:13.258Z,9.90
2023-05-06T05:44:15.198Z,14.00
2023-05-06T05:45:17.569Z,9.17
2023-05-06T05:46:19.602Z,8.87
2023-05-06T05:47:21.831Z,8.80
2023-05-06T05:48:24.238Z,12.20
2023-05-06T05:49:25.985Z,8.23
2023-05-06T05:50:27.479Z,10.50
2023-05-06T05:51:29.180Z,8.30
2023-05-06T05:52:31.492Z,8.17
2023-05-06T05:53:33.010Z,18.53
2023-05-06T05:54:34.576Z,6.97
2023-05-06T05:55:36.398Z,7.83
2023-05-06T05:56:38.075Z,10.43
2023-05-06T05:57:39.603Z,6.60
2023-05-06T05:58:41.160Z,6.80
2023-05-06T05:59:42.790Z,7.60
2023-05-06T06:00:44.361Z,6.93
2023-05-06T06:01:46.191Z,6.63
2023-05-06T06:02:47.945Z,9.57
2023-05-06T06:03:50.143Z,13.67
2023-05-06T06:04:52.836Z,7.57
2023-05-06T06:05:55.338Z,12.37
2023-05-06T06:07:01.770Z,8.00
2023-05-06T06:08:04.179Z,5.30
2023-05-06T06:09:05.958Z,8.53
2023-05-06T06:10:08.063Z,5.27
2023-05-06T06:11:09.598Z,6.17
2023-05-06T06:12:11.181Z,5.60
2023-05-06T06:13:13.458Z,4.97
2023-05-06T06:14:15.060Z,4.20
2023-05-06T06:15:16.630Z,4.00
2023-05-06T06:16:18.195Z,6.70
2023-05-06T06:17:19.891Z,5.47
2023-05-06T06:18:21.520Z,4.33
2023-05-06T06:19:23.517Z,5.43
2023-05-06T06:20:25.907Z,4.53
2023-05-06T06:21:27.754Z,4.40
2023-05-06T06:22:29.256Z,6.20
2023-05-06T06:23:30.987Z,6.87
2023-05-06T06:24:35.021Z,5.43
2023-05-06T06:25:36.654Z,5.93
2023-05-06T06:26:38.272Z,5.57
2023-05-06T06:27:40.008Z,3.93
2023-05-06T06:28:42.015Z,4.20
2023-05-06T06:29:43.655Z,6.57
2023-05-06T06:30:45.723Z,3.60
2023-05-06T06:31:47.490Z,3.83
2023-05-06T06:32:52.718Z,3.77
2023-05-06T06:33:54.248Z,3.60
2023-05-06T06:34:55.757Z,4.43
2023-05-06T06:35:57.347Z,4.70
2023-05-06T06:36:59.029Z,3.37
2023-05-06T06:38:00.738Z,6.37
2023-05-06T06:39:02.613Z,7.07
2023-05-06T06:40:04.466Z,10.73
2023-05-06T06:41:06.135Z,3.80
2023-05-06T06:42:07.619Z,4.93
2023-05-06T06:43:09.500Z,7.00
2023-05-06T06:44:11.287Z,3.17
2023-05-06T06:45:14.076Z,3.77
2023-05-06T06:46:15.758Z,4.30
2023-05-06T06:47:17.516Z,3.97
2023-05-06T06:48:19.165Z,8.73
2023-05-06T06:49:20.940Z,4.87
2023-05-06T06:50:22.811Z,3.47
2023-05-06T06:51:24.950Z,5.17
2023-05-06T06:52:26.875Z,8.90
2023-05-06T06:53:28.472Z,3.27
2023-05-06T06:54:29.982Z,3.30
2023-05-06T06:55:31.522Z,3.23
2023-05-06T06:56:33.034Z,2.90
2023-05-06T06:57:34.743Z,5.00
2023-05-06T06:58:36.350Z,4.33
2023-05-06T06:59:37.886Z,2.63
2023-05-06T07:00:39.414Z,2.73
2023-05-06T07:01:42.070Z,2.37
2023-05-06T07:02:43.914Z,7.33
2023-05-06T07:03:45.549Z,3.47
2023-05-06T07:04:47.427Z,5.27
2023-05-06T07:05:49.144Z,2.63
2023-05-06T07:06:50.592Z,2.10
2023-05-06T07:07:52.062Z,5.20
2023-05-06T07:08:53.595Z,3.37
2023-05-06T07:09:56.883Z,3.87
2023-05-06T07:10:58.577Z,2.00
2023-05-06T07:12:01.135Z,4.20
2023-05-06T07:13:02.955Z,4.37
2023-05-06T07:14:04.960Z,2.90
2023-05-06T07:15:07.215Z,2.20
2023-05-06T07:16:08.821Z,5.53
2023-05-06T07:17:10.662Z,1.97
2023-05-06T07:18:12.348Z,2.20
2023-05-06T07:19:14.207Z,1.83
2023-05-06T07:20:16.330Z,2.10
2023-05-06T07:21:18.016Z,2.70
2023-05-06T07:22:19.544Z,2.73
2023-05-06T07:23:21.146Z,2.80
2023-05-06T07:24:22.730Z,1.97
2023-05-06T07:25:28.017Z,1.80
2023-05-06T07:26:29.589Z,3.70
2023-05-06T07:27:31.213Z,3.27
2023-05-06T07:28:32.733Z,2.50
2023-05-06T07:29:36.685Z,2.30
2023-05-06T07:30:38.870Z,3.80
2023-05-06T07:31:40.413Z,2.80
2023-05-06T07:32:42.723Z,8.83
2023-05-06T07:33:44.641Z,1.77
2023-05-06T07:34:46.273Z,2.37
2023-05-06T07:35:47.794Z,1.67
2023-05-06T07:36:50.711Z,2.13
2023-05-06T07:37:52.665Z,1.60
2023-05-06T07:38:54.174Z,3.37
2023-05-06T07:39:58.639Z,1.83
2023-05-06T07:41:00.308Z,4.00
2023-05-06T07:42:01.966Z,1.63
2023-05-06T07:43:03.725Z,2.10
2023-05-06T07:44:06.298Z,1.17
2023-05-06T07:45:08.214Z,1.50
2023-05-06T07:46:11.264Z,3.03
2023-05-06T07:47:17.172Z,6.80
2023-05-06T07:48:20.147Z,2.77
2023-05-06T07:49:21.940Z,2.20
2023-05-06T07:50:23.493Z,1.60
2023-05-06T07:51:26.189Z,1.00
2023-05-06T07:52:28.091Z,1.60
2023-05-06T07:53:29.595Z,1.57
2023-05-06T07:54:31.793Z,2.60
2023-05-06T07:55:35.062Z,2.53
2023-05-06T07:56:37.070Z,2.80
2023-05-06T07:57:38.723Z,2.63
2023-05-06T07:58:40.254Z,4.57
2023-05-06T07:59:47.483Z,1.53
2023-05-06T08:00:55.250Z,7.23
2023-05-06T08:01:58.388Z,6.60
2023-05-06T08:03:00.344Z,2.90
2023-05-06T08:04:02.181Z,5.07
2023-05-06T08:05:04.678Z,1.47
2023-05-06T08:06:06.980Z,1.57
2023-05-06T08:07:08.963Z,1.47
2023-05-06T08:08:11.076Z,1.43
2023-05-06T08:09:19.758Z,1.60
2023-05-06T08:10:25.009Z,2.30
2023-05-06T08:11:27.167Z,2.40
2023-05-06T08:12:29.076Z,3.07
2023-05-06T08:13:31.680Z,1.53
2023-05-06T08:14:33.204Z,0.97
2023-05-06T08:15:35.086Z,1.73
2023-05-06T08:16:36.895Z,1.33
2023-05-06T08:17:38.585Z,1.13
2023-05-06T08:18:40.060Z,2.10
2023-05-06T08:19:41.608Z,2.50
2023-05-06T08:20:43.164Z,0.80
2023-05-06T08:21:44.786Z,1.10
2023-05-06T08:22:46.271Z,2.73
2023-05-06T08:23:47.851Z,1.27
2023-05-06T08:24:49.411Z,1.20
2023-05-06T08:25:51.037Z,1.27
2023-05-06T08:26:52.826Z,2.50
2023-05-06T08:27:54.316Z,1.07
2023-05-06T08:28:57.659Z,1.10
2023-05-06T08:29:59.636Z,1.33
2023-05-06T08:31:01.285Z,5.50
2023-05-06T08:32:03.525Z,1.43
2023-05-06T08:33:05.449Z,1.30
2023-05-06T08:34:07.316Z,0.80
2023-05-06T08:35:09.305Z,3.27
2023-05-06T08:36:10.947Z,3.50
2023-05-06T08:37:12.598Z,2.50
2023-05-06T08:38:14.619Z,0.93
2023-05-06T08:39:16.444Z,1.80
2023-05-06T08:40:22.202Z,0.60
2023-05-06T08:41:24.467Z,2.97
2023-05-06T08:42:28.058Z,0.70
2023-05-06T08:43:32.136Z,1.63
2023-05-06T08:44:33.750Z,2.00
2023-05-06T08:45:35.328Z,1.10
2023-05-06T08:46:37.152Z,1.90
2023-05-06T08:47:38.913Z,1.07
2023-05-06T08:48:41.334Z,1.10
2023-05-06T08:49:42.773Z,1.00
2023-05-06T08:50:44.326Z,2.10
2023-05-06T08:51:46.620Z,1.07
2023-05-06T08:52:49.683Z,1.97
2023-05-06T08:53:51.968Z,1.80
2023-05-06T08:54:56.990Z,1.57
2023-05-06T08:56:01.044Z,2.40
2023-05-06T08:57:04.832Z,2.03
2023-05-06T08:58:07.058Z,1.00
2023-05-06T08:59:09.612Z,1.50
2023-05-06T09:00:11.428Z,2.10
2023-05-06T09:01:14.032Z,6.23
2023-05-06T09:02:15.673Z,1.20
2023-05-06T09:03:21.634Z,0.80
2023-05-06T09:04:23.752Z,1.90
2023-05-06T09:05:27.977Z,2.43
2023-05-06T09:06:29.975Z,1.13
2023-05-06T09:07:31.949Z,1.27
2023-05-06T09:08:33.460Z,1.73
2023-05-06T09:09:35.563Z,1.20
2023-05-06T09:10:46.520Z,1.33
2023-05-06T09:11:53.868Z,1.33
2023-05-06T09:12:56.730Z,1.60
2023-05-06T09:14:09.991Z,3.87
2023-05-06T09:15:12.349Z,8.00
2023-05-06T09:16:30.206Z,2.30
2023-05-06T09:17:32.700Z,2.10
2023-05-06T09:18:36.307Z,2.73
2023-05-06T09:19:38.054Z,7.20
2023-05-06T09:20:43.126Z,0.87
2023-05-06T09:21:46.065Z,2.03
2023-05-06T09:22:49.128Z,9.90
2023-05-06T09:23:51.183Z,9.80
2023-05-06T09:24:57.186Z,1.17
2023-05-06T09:25:59.575Z,3.30
2023-05-06T09:27:01.623Z,2.90
2023-05-06T09:28:07.469Z,6.17
2023-05-06T09:29:09.254Z,1.63
2023-05-06T09:30:14.393Z,3.70
2023-05-06T09:31:16.109Z,3.70
2023-05-06T09:32:17.738Z,3.30
2023-05-06T09:33:20.338Z,0.90
2023-05-06T09:34:22.772Z,1.10
2023-05-06T09:35:31.428Z,0.80
2023-05-06T09:36:33.766Z,3.10
2023-05-06T09:37:35.511Z,1.40
2023-05-06T09:38:37.832Z,1.30
2023-05-06T09:39:39.276Z,1.93
2023-05-06T09:40:40.849Z,0.73
2023-05-06T09:41:42.526Z,2.63
2023-05-06T09:42:44.013Z,1.73
2023-05-06T09:43:46.258Z,1.27
2023-05-06T09:44:47.913Z,1.35
2023-05-06T09:45:49.451Z,1.15
2023-05-06T09:46:51.165Z,1.10
2023-05-06T09:47:53.969Z,2.00
2023-05-06T09:48:57.176Z,0.88
2023-05-06T09:50:01.482Z,4.93
2023-05-06T09:51:04.285Z,2.10
2023-05-06T09:52:07.007Z,0.85
2023-05-06T09:53:08.911Z,3.53
2023-05-06T09:54:10.578Z,1.07
2023-05-06T09:55:12.446Z,3.97
2023-05-06T09:56:14.781Z,3.58
2023-05-06T09:57:19.969Z,1.85
2023-05-06T09:58:22.335Z,3.55
2023-05-06T09:59:29.290Z,3.35
2023-05-06T10:00:31.710Z,0.90
2023-05-06T10:01:37.190Z,1.73
2023-05-06T10:02:42.639Z,2.10
2023-05-06T10:03:47.030Z,3.53
2023-05-06T10:04:50.360Z,3.23
2023-05-06T10:05:53.410Z,1.33
2023-05-06T10:07:00.162Z,2.67
2023-05-06T10:08:02.501Z,0.70
2023-05-06T10:09:06.557Z,3.53
2023-05-06T10:10:11.767Z,2.90
2023-05-06T10:11:14.836Z,0.73
2023-05-06T10:12:16.515Z,1.20
2023-05-06T10:13:19.524Z,1.60
2023-05-06T10:14:21.194Z,0.70
2023-05-06T10:15:23.892Z,2.03
2023-05-06T10:16:25.684Z,1.85
2023-05-06T10:17:28.893Z,1.23
2023-05-06T10:18:31.052Z,1.38
2023-05-06T10:19:33.592Z,2.95
2023-05-06T10:20:36.100Z,1.88
2023-05-06T10:21:40.208Z,0.70
2023-05-06T10:22:52.515Z,1.27
2023-05-06T10:24:04.192Z,0.70
2023-05-06T10:25:13.122Z,1.58
2023-05-06T10:26:16.834Z,2.70
2023-05-06T10:27:20.668Z,1.10
2023-05-06T10:28:29.564Z,2.15
2023-05-06T10:29:35.531Z,1.80
2023-05-06T10:30:39.408Z,1.30
2023-05-06T10:31:46.462Z,2.55
2023-05-06T10:32:48.853Z,2.15
2023-05-06T10:33:52.118Z,6.90
2023-05-06T10:34:55.581Z,2.05
2023-05-06T10:36:01.818Z,1.60
2023-05-06T10:37:05.845Z,2.35
2023-05-06T10:38:12.557Z,4.97
2023-05-06T10:39:14.809Z,2.25
2023-05-06T10:40:16.630Z,1.58
2023-05-06T10:41:19.884Z,4.25
2023-05-06T10:42:29.839Z,1.98
2023-05-06T10:43:32.510Z,0.80
2023-05-06T10:45:00.787Z,1.30
2023-05-06T10:46:02.622Z,1.88
2023-05-06T10:47:05.679Z,1.60
2023-05-06T10:48:08.932Z,1.20
2023-05-06T10:49:11.560Z,1.02
2023-05-06T10:50:20.895Z,0.80
2023-05-06T10:51:23.885Z,5.13
2023-05-06T10:52:26.276Z,3.58
2023-05-06T10:53:48.012Z,1.25
2023-05-06T10:54:50.903Z,2.05
2023-05-06T10:56:07.136Z,3.05
2023-05-06T10:57:09.836Z,6.32
2023-05-06T10:58:11.347Z,2.35
2023-05-06T10:59:13.381Z,2.67
2023-05-06T11:00:15.363Z,2.53
2023-05-06T11:01:21.168Z,1.40
2023-05-06T11:02:24.394Z,2.65
2023-05-06T11:03:26.559Z,1.60
2023-05-06T11:04:31.440Z,2.50
2023-05-06T11:05:46.059Z,2.27
2023-05-06T11:06:51.599Z,1.20
2023-05-06T11:08:06.419Z,2.93
2023-05-06T11:09:28.782Z,1.23
2023-05-06T11:10:34.282Z,7.23
2023-05-06T11:12:02.264Z,6.23
2023-05-06T11:13:28.045Z,1.47
2023-05-06T11:14:31.950Z,1.73
2023-05-06T11:15:36.826Z,2.93
2023-05-06T11:16:57.583Z,1.23
2023-05-06T11:17:59.511Z,3.10
2023-05-06T11:19:01.104Z,7.00
2023-05-06T11:20:18.868Z,6.53
2023-05-06T11:21:20.631Z,3.00
2023-05-06T11:22:38.527Z,0.80
2023-05-06T11:23:42.871Z,1.83
2023-05-06T11:24:44.560Z,5.60
2023-05-06T11:25:47.412Z,1.73
2023-05-06T11:27:01.458Z,8.05
2023-05-06T11:28:07.007Z,1.77
2023-05-06T11:29:12.289Z,2.03
2023-05-06T11:30:15.177Z,4.53
2023-05-06T11:31:17.262Z,1.42
2023-05-06T11:32:22.903Z,2.33
2023-05-06T11:33:26.949Z,2.13
2023-05-06T11:34:29.791Z,2.80
2023-05-06T11:35:37.951Z,1.33
2023-05-06T11:36:46.994Z,2.95
2023-05-06T11:37:49.012Z,3.80
2023-05-06T11:38:52.370Z,3.33
2023-05-06T11:39:54.232Z,3.80
2023-05-06T11:40:55.665Z,5.10
2023-05-06T11:42:02.372Z,1.77
2023-05-06T11:43:17.120Z,1.50
2023-05-06T11:44:26.043Z,1.17
2023-05-06T11:45:39.719Z,0.90
2023-05-06T11:46:43.667Z,1.02
2023-05-06T11:47:46.069Z,1.75
2023-05-06T11:48:47.830Z,1.08
2023-05-06T11:49:53.871Z,4.53
2023-05-06T11:50:55.729Z,3.03
2023-05-06T11:51:57.322Z,10.98
2023-05-06T11:52:58.856Z,17.20
2023-05-06T11:54:05.811Z,4.43
2023-05-06T11:55:09.937Z,19.95
2023-05-06T11:56:12.609Z,6.97
2023-05-06T11:57:14.252Z,4.32
2023-05-06T11:58:16.844Z,7.70
2023-05-06T11:59:25.704Z,4.15
2023-05-06T12:00:27.386Z,4.15
2023-05-06T12:01:30.116Z,3.15
2023-05-06T12:02:31.689Z,8.88
2023-05-06T12:03:33.642Z,18.90
2023-05-06T12:04:41.643Z,24.83
2023-05-06T12:05:43.877Z,12.75
2023-05-06T12:06:46.531Z,12.75
2023-05-06T12:07:48.214Z,25.58
2023-05-06T12:08:50.671Z,6.38
2023-05-06T12:09:52.699Z,2.65
2023-05-06T12:10:55.059Z,3.65
2023-05-06T12:11:57.134Z,1.92
2023-05-06T12:12:58.884Z,5.28
2023-05-06T12:14:01.664Z,2.28
2023-05-06T12:15:03.996Z,3.63
2023-05-06T12:16:05.965Z,3.45
2023-05-06T12:17:07.995Z,1.23
2023-05-06T12:18:10.184Z,0.82
2023-05-06T12:19:11.874Z,1.00
2023-05-06T12:20:13.544Z,3.05
2023-05-06T12:21:21.800Z,3.25
2023-05-06T12:22:27.128Z,9.55
2023-05-06T12:23:28.885Z,0.77
2023-05-06T12:24:31.022Z,2.13
2023-05-06T12:25:32.908Z,1.10
2023-05-06T12:26:45.801Z,0.82
2023-05-06T12:27:47.553Z,3.67
2023-05-06T12:29:04.340Z,1.27
2023-05-06T12:30:10.882Z,6.32
2023-05-06T12:31:26.527Z,5.65
2023-05-06T12:32:28.090Z,2.72
2023-05-06T12:33:44.262Z,2.13
2023-05-06T12:34:45.916Z,2.35
2023-05-06T12:35:47.985Z,3.95
2023-05-06T12:36:49.888Z,1.25
2023-05-06T12:37:51.419Z,4.68
2023-05-06T12:38:58.163Z,1.75
2023-05-06T12:40:00.340Z,2.10
2023-05-06T12:41:01.925Z,1.60
2023-05-06T12:42:03.915Z,0.75
2023-05-06T12:43:05.520Z,1.73
2023-05-06T12:44:26.238Z,2.00
2023-05-06T12:45:28.006Z,2.50
2023-05-06T12:46:31.616Z,1.13
2023-05-06T12:47:33.296Z,16.48
2023-05-06T12:48:35.708Z,2.28
2023-05-06T12:49:45.877Z,1.17
2023-05-06T12:50:47.941Z,5.32
2023-05-06T12:52:05.376Z,2.50
2023-05-06T12:53:09.197Z,3.33
2023-05-06T12:54:29.494Z,4.90
2023-05-06T12:55:34.676Z,1.45
2023-05-06T12:56:36.320Z,1.55
2023-05-06T12:57:37.799Z,3.63
2023-05-06T12:58:40.085Z,1.00
2023-05-06T12:59:43.222Z,2.80
2023-05-06T13:00:45.291Z,3.70
2023-05-06T13:01:47.178Z,2.63
2023-05-06T13:02:48.814Z,1.20
2023-05-06T13:03:50.972Z,1.30
2023-05-06T13:04:52.882Z,2.80
2023-05-06T13:05:54.442Z,1.27
2023-05-06T13:06:57.104Z,1.40
2023-05-06T13:07:58.650Z,1.20
2023-05-06T13:09:00.402Z,9.93
2023-05-06T13:10:03.790Z,0.90
2023-05-06T13:11:05.432Z,3.57
2023-05-06T13:12:07.327Z,1.30
2023-05-06T13:13:09.297Z,2.33
2023-05-06T13:14:11.348Z,1.33
2023-05-06T13:15:12.867Z,2.73
2023-05-06T13:16:14.584Z,3.30
2023-05-06T13:17:16.567Z,4.93
2023-05-06T13:18:18.272Z,1.73
2023-05-06T13:19:31.579Z,1.20
2023-05-06T13:20:35.157Z,1.17
2023-05-06T13:21:40.214Z,3.53
2023-05-06T13:22:53.872Z,1.20
2023-05-06T13:23:56.652Z,2.50
2023-05-06T13:24:58.764Z,3.27
2023-05-06T13:26:05.420Z,1.50
2023-05-06T13:27:07.583Z,3.10
2023-05-06T13:28:09.832Z,3.80
2023-05-06T13:29:11.778Z,1.87
2023-05-06T13:30:13.776Z,4.17
2023-05-06T13:31:16.031Z,1.50
2023-05-06T13:32:18.128Z,3.60
2023-05-06T13:33:19.967Z,1.17
2023-05-06T13:34:21.960Z,2.33
2023-05-06T13:35:23.717Z,9.10
2023-05-06T13:36:25.339Z,1.37
2023-05-06T13:37:26.907Z,2.10
2023-05-06T13:38:28.740Z,2.00
2023-05-06T13:39:31.745Z,1.53
2023-05-06T13:40:34.231Z,1.37
2023-05-06T13:41:36.119Z,2.40
2023-05-06T13:42:39.061Z,5.70
2023-05-06T13:43:41.193Z,1.67
2023-05-06T13:44:42.892Z,1.27
2023-05-06T13:45:45.060Z,1.33
2023-05-06T13:46:46.793Z,1.23
2023-05-06T13:47:48.498Z,1.20
2023-05-06T13:48:50.338Z,1.00
2023-05-06T13:49:52.451Z,1.40